createdAt,value
2023-02-26T00:01:43.662Z,24.35
2023-02-26T00:04:11.637Z,17.92
2023-02-26T00:06:43.039Z,16.60
2023-02-26T00:09:10.507Z,8.60
2023-02-26T00:11:38.330Z,81.10
2023-02-26T00:14:09.313Z,46.30
2023-02-26T00:16:37.569Z,17.87
2023-02-26T00:19:08.335Z,14.28
2023-02-26T00:21:37.400Z,14.35
2023-02-26T00:24:06.473Z,14.55
2023-02-26T00:26:35.328Z,13.88
2023-02-26T00:29:04.796Z,12.43
2023-02-26T00:31:32.910Z,12.33
2023-02-26T00:34:01.688Z,15.60
2023-02-26T00:36:44.177Z,8.55
2023-02-26T00:39:44.742Z,8.00
2023-02-26T00:42:14.365Z,4.05
2023-02-26T00:44:42.948Z,3.62
2023-02-26T00:47:44.947Z,4.67
2023-02-26T00:50:24.942Z,8.70
2023-02-26T00:53:01.119Z,9.83
2023-02-26T00:55:29.645Z,11.90
2023-02-26T00:57:57.318Z,9.23
2023-02-26T01:00:25.127Z,7.97
2023-02-26T01:02:53.570Z,8.00
2023-02-26T01:05:22.522Z,8.80
2023-02-26T01:08:10.978Z,7.67
2023-02-26T01:10:38.997Z,12.18
2023-02-26T01:13:07.625Z,10.85
2023-02-26T01:15:36.175Z,11.63
2023-02-26T01:18:24.078Z,10.35
2023-02-26T01:21:00.146Z,7.75
2023-02-26T01:23:31.979Z,7.00
2023-02-26T01:26:04.167Z,7.33
2023-02-26T01:28:33.121Z,4.33
2023-02-26T01:31:05.502Z,10.00
2023-02-26T01:33:47.328Z,8.60
2023-02-26T01:36:25.352Z,7.37
2023-02-26T01:39:04.196Z,5.17
2023-02-26T01:41:54.318Z,5.45
2023-02-26T01:44:55.150Z,4.92
2023-02-26T01:47:37.436Z,4.80
2023-02-26T01:50:19.847Z,4.85
2023-02-26T01:52:52.936Z,2.52
2023-02-26T01:55:25.090Z,3.45
2023-02-26T01:57:56.472Z,6.25
2023-02-26T02:00:24.991Z,3.37
2023-02-26T02:02:54.581Z,3.80
2023-02-26T02:05:28.400Z,5.85
2023-02-26T02:10:43.032Z,7.80
2023-02-26T02:13:54.074Z,6.90
2023-02-26T02:16:39.147Z,6.72
2023-02-26T02:19:58.155Z,4.65
2023-02-26T02:22:55.749Z,4.75
2023-02-26T02:25:41.130Z,8.03
2023-02-26T02:28:27.117Z,11.03
2023-02-26T02:31:21.873Z,12.03
2023-02-26T02:34:14.203Z,12.28
2023-02-26T02:37:35.002Z,11.22
2023-02-26T02:40:08.429Z,4.80
2023-02-26T02:42:49.033Z,8.00
2023-02-26T02:45:27.837Z,7.10
2023-02-26T02:48:15.840Z,5.30
2023-02-26T02:50:51.805Z,7.05
2023-02-26T02:53:25.982Z,5.28
2023-02-26T02:56:02.467Z,6.95
2023-02-26T02:58:35.160Z,4.95
2023-02-26T03:01:07.224Z,4.20
2023-02-26T03:04:08.249Z,3.75
2023-02-26T03:06:38.335Z,4.92
2023-02-26T03:09:09.007Z,4.75
2023-02-26T03:11:38.264Z,4.58
2023-02-26T03:14:09.720Z,3.15
2023-02-26T03:17:17.844Z,4.10
2023-02-26T03:20:15.633Z,5.20
2023-02-26T03:23:09.021Z,6.55
2023-02-26T03:25:44.912Z,8.88
2023-02-26T03:28:27.068Z,6.58
2023-02-26T03:31:22.089Z,4.87
2023-02-26T03:33:58.073Z,4.35
2023-02-26T03:36:48.668Z,4.85
2023-02-26T03:39:26.866Z,7.08
2023-02-26T03:42:39.991Z,14.38
2023-02-26T03:45:15.661Z,8.55
2023-02-26T03:47:48.427Z,5.72
2023-02-26T03:50:32.851Z,5.40
2023-02-26T03:53:15.779Z,4.05
2023-02-26T03:55:50.006Z,4.95
2023-02-26T03:58:22.883Z,3.90
2023-02-26T04:01:07.316Z,6.45
2023-02-26T04:03:57.540Z,5.25
2023-02-26T04:06:27.105Z,7.87
2023-02-26T04:08:57.813Z,7.80
2023-02-26T04:11:28.340Z,5.80
2023-02-26T04:13:56.612Z,4.95
2023-02-26T04:16:28.966Z,5.42
2023-02-26T04:18:58.392Z,5.00
2023-02-26T04:21:26.929Z,3.25
2023-02-26T04:23:56.453Z,3.22
2023-02-26T04:26:27.375Z,2.80
2023-02-26T04:28:56.220Z,2.98
2023-02-26T04:31:24.969Z,2.70
2023-02-26T04:33:52.972Z,3.42
2023-02-26T04:36:20.840Z,5.03
2023-02-26T04:38:48.517Z,4.78
2023-02-26T04:41:16.941Z,5.15
2023-02-26T04:43:45.202Z,6.15
2023-02-26T04:46:14.836Z,7.05
2023-02-26T04:48:42.541Z,5.62
2023-02-26T04:51:10.266Z,4.15
2023-02-26T04:53:38.039Z,4.47
2023-02-26T04:56:07.298Z,4.78
2023-02-26T04:58:35.461Z,4.53
2023-02-26T05:01:05.294Z,3.62
2023-02-26T05:03:33.309Z,5.28
2023-02-26T05:06:01.484Z,4.53
2023-02-26T05:08:29.240Z,3.70
2023-02-26T05:10:57.026Z,3.30
2023-02-26T05:13:24.853Z,4.37
2023-02-26T05:15:54.449Z,4.42
2023-02-26T05:18:22.169Z,5.45
2023-02-26T05:20:55.509Z,4.97
2023-02-26T05:23:23.675Z,3.77
2023-02-26T05:25:51.636Z,4.97
2023-02-26T05:28:19.497Z,5.70
2023-02-26T05:30:47.327Z,5.87
2023-02-26T05:33:15.140Z,6.20
2023-02-26T05:35:42.592Z,7.80
2023-02-26T05:38:10.295Z,8.18
2023-02-26T05:40:38.043Z,6.42
2023-02-26T05:43:05.532Z,18.40
2023-02-26T05:45:32.934Z,9.45
2023-02-26T05:48:01.313Z,7.67
2023-02-26T05:50:30.077Z,11.35
2023-02-26T05:52:58.305Z,11.60
2023-02-26T05:55:26.232Z,10.45
2023-02-26T05:57:53.896Z,8.13
2023-02-26T06:00:21.867Z,7.78
2023-02-26T06:02:49.807Z,6.90
2023-02-26T06:05:18.279Z,6.60
2023-02-26T06:07:47.551Z,7.35
2023-02-26T06:10:15.440Z,8.68
2023-02-26T06:12:43.176Z,8.98
2023-02-26T06:15:11.980Z,7.55
2023-02-26T06:17:40.876Z,7.42
2023-02-26T06:20:11.747Z,8.28
2023-02-26T06:22:39.669Z,9.10
2023-02-26T06:25:08.789Z,7.62
2023-02-26T06:27:36.491Z,6.83
2023-02-26T06:30:06.016Z,6.55
2023-02-26T06:32:33.809Z,7.80
2023-02-26T06:35:01.528Z,8.10
2023-02-26T06:37:32.295Z,10.45
2023-02-26T06:39:59.911Z,18.20
2023-02-26T06:42:27.618Z,21.65
2023-02-26T06:44:56.753Z,17.85
2023-02-26T06:47:24.800Z,14.47
2023-02-26T06:49:52.587Z,13.60
2023-02-26T06:52:20.441Z,22.27
2023-02-26T06:54:47.889Z,20.20
2023-02-26T06:57:15.679Z,16.20
2023-02-26T06:59:43.361Z,19.40
2023-02-26T07:02:20.121Z,17.90
2023-02-26T07:04:47.928Z,17.90
2023-02-26T07:07:16.386Z,20.05
2023-02-26T07:09:45.954Z,20.55
2023-02-26T07:12:14.452Z,16.82
2023-02-26T07:14:42.593Z,14.87
2023-02-26T07:17:12.749Z,19.50
2023-02-26T07:19:40.678Z,18.42
2023-02-26T07:22:08.748Z,17.23
2023-02-26T07:24:36.203Z,21.25
2023-02-26T07:27:04.008Z,19.52
2023-02-26T07:29:31.642Z,12.37
2023-02-26T07:31:59.576Z,15.68
2023-02-26T07:34:27.669Z,11.43
2023-02-26T07:36:55.296Z,10.40
2023-02-26T07:39:22.842Z,7.22
2023-02-26T07:41:50.280Z,7.58
2023-02-26T07:44:19.737Z,6.33
2023-02-26T07:46:49.375Z,7.42
2023-02-26T07:49:17.242Z,15.63
2023-02-26T07:51:45.535Z,16.82
2023-02-26T07:54:13.420Z,8.88
2023-02-26T07:56:42.408Z,10.15
2023-02-26T07:59:10.496Z,12.30
2023-02-26T08:01:38.484Z,10.55
2023-02-26T08:04:06.385Z,12.13
2023-02-26T08:06:34.872Z,14.30
2023-02-26T08:09:04.848Z,11.93
2023-02-26T08:11:35.063Z,12.35
2023-02-26T08:14:03.315Z,6.30
2023-02-26T08:16:31.027Z,14.23
2023-02-26T08:18:58.698Z,8.05
2023-02-26T08:21:26.517Z,11.30
2023-02-26T08:23:54.167Z,7.83
2023-02-26T08:26:22.398Z,7.33
2023-02-26T08:28:50.113Z,6.65
2023-02-26T08:31:18.402Z,10.93
2023-02-26T08:33:46.498Z,12.68
2023-02-26T08:36:14.260Z,14.58
2023-02-26T08:38:42.025Z,12.23
2023-02-26T08:41:09.766Z,12.65
2023-02-26T08:43:37.513Z,9.88
2023-02-26T08:46:05.502Z,9.20
2023-02-26T08:48:33.095Z,8.63
2023-02-26T08:51:00.818Z,5.40
2023-02-26T08:53:28.691Z,7.85
2023-02-26T08:55:56.373Z,7.37
2023-02-26T08:58:24.140Z,9.95
2023-02-26T09:00:51.830Z,8.53
2023-02-26T09:03:19.875Z,7.65
2023-02-26T09:05:47.531Z,7.85
2023-02-26T09:08:15.552Z,6.70
2023-02-26T09:10:44.197Z,8.83
2023-02-26T09:13:11.902Z,10.03
2023-02-26T09:15:39.458Z,8.58
2023-02-26T09:18:10.998Z,10.82
2023-02-26T09:20:38.782Z,7.05
2023-02-26T09:23:06.432Z,8.88
2023-02-26T09:25:34.210Z,8.13
2023-02-26T09:28:02.105Z,8.10
2023-02-26T09:30:30.089Z,9.78
2023-02-26T09:32:57.742Z,7.33
2023-02-26T09:35:25.621Z,5.28
2023-02-26T09:37:53.569Z,6.60
2023-02-26T09:40:26.952Z,7.03
2023-02-26T09:43:09.714Z,5.60
2023-02-26T09:45:44.218Z,6.33
2023-02-26T09:48:15.631Z,5.12
2023-02-26T09:50:57.177Z,4.60
2023-02-26T09:53:32.917Z,9.80
2023-02-26T09:56:08.825Z,5.92
2023-02-26T09:58:41.438Z,8.80
2023-02-26T10:01:32.853Z,6.90
2023-02-26T10:04:21.278Z,8.55
2023-02-26T10:06:59.791Z,8.18
2023-02-26T10:09:57.587Z,7.42
2023-02-26T10:12:28.671Z,7.97
2023-02-26T10:15:22.251Z,6.45
2023-02-26T10:18:23.307Z,6.92
2023-02-26T10:21:05.522Z,9.05
2023-02-26T10:23:58.915Z,8.80
2023-02-26T10:26:31.460Z,8.30
2023-02-26T10:29:28.424Z,7.45
2023-02-26T10:32:27.388Z,9.28
2023-02-26T10:35:00.616Z,6.60
2023-02-26T10:37:58.581Z,6.90
2023-02-26T10:40:51.588Z,11.10
2023-02-26T10:43:33.404Z,7.42
2023-02-26T10:46:44.655Z,5.90
2023-02-26T10:49:45.314Z,6.58
2023-02-26T10:52:24.184Z,5.42
2023-02-26T10:55:24.476Z,7.78
2023-02-26T10:58:06.308Z,9.08
2023-02-26T11:00:35.374Z,5.90
2023-02-26T11:03:06.263Z,4.65
2023-02-26T11:05:35.020Z,6.47
2023-02-26T11:08:26.384Z,12.15
2023-02-26T11:10:58.025Z,17.62
2023-02-26T11:13:29.212Z,9.85
2023-02-26T11:16:02.484Z,6.30
2023-02-26T11:18:38.010Z,7.75
2023-02-26T11:21:08.568Z,8.50
2023-02-26T11:23:36.067Z,9.55
2023-02-26T11:26:11.720Z,7.87
2023-02-26T11:28:47.208Z,13.28
2023-02-26T11:31:21.791Z,7.65
2023-02-26T11:33:55.425Z,8.23
2023-02-26T11:39:05.171Z,16.20
2023-02-26T11:41:38.925Z,9.58
2023-02-26T11:44:21.695Z,7.53
2023-02-26T11:46:56.162Z,11.15
2023-02-26T11:49:27.883Z,10.85
2023-02-26T11:52:30.266Z,8.43
2023-02-26T11:55:02.966Z,6.87
2023-02-26T11:57:32.954Z,9.43
2023-02-26T12:00:05.429Z,14.68
2023-02-26T12:02:34.887Z,7.80
2023-02-26T12:05:05.868Z,6.50
2023-02-26T12:07:33.611Z,5.10
2023-02-26T12:10:01.323Z,5.00
2023-02-26T12:12:50.243Z,10.25
2023-02-26T12:15:40.278Z,7.83
2023-02-26T12:18:28.502Z,7.58
2023-02-26T12:21:20.864Z,7.72
2023-02-26T12:24:22.992Z,9.23
2023-02-26T12:27:08.012Z,7.40
2023-02-26T12:30:21.813Z,8.40
2023-02-26T12:36:08.101Z,19.60
2023-02-26T12:38:50.199Z,6.58
2023-02-26T12:41:47.683Z,13.43
2023-02-26T12:44:36.009Z,5.03
2023-02-26T12:47:26.841Z,5.00
2023-02-26T12:50:21.837Z,5.67
2023-02-26T12:53:19.679Z,8.65
2023-02-26T12:56:13.499Z,23.60
2023-02-26T12:58:52.615Z,39.83
2023-02-26T13:02:04.676Z,27.87
2023-02-26T13:04:59.191Z,8.68
2023-02-26T13:07:53.464Z,6.55
2023-02-26T13:10:44.188Z,7.53
2023-02-26T13:13:43.327Z,7.65
2023-02-26T13:16:45.416Z,6.53
2023-02-26T13:19:37.786Z,8.13
2023-02-26T13:22:13.830Z,18.15
2023-02-26T13:25:04.433Z,19.98
2023-02-26T13:27:37.036Z,16.05
2023-02-26T13:30:34.876Z,14.23
2023-02-26T13:33:02.943Z,16.97
2023-02-26T13:35:41.491Z,14.33
2023-02-26T13:38:40.452Z,12.43
2023-02-26T13:41:32.655Z,12.07
2023-02-26T13:44:27.644Z,6.17
2023-02-26T13:47:20.128Z,7.53
2023-02-26T13:50:05.323Z,10.23
2023-02-26T13:52:35.985Z,9.95
2023-02-26T13:55:05.463Z,10.60
2023-02-26T13:57:43.606Z,10.63
2023-02-26T14:00:29.059Z,14.05
2023-02-26T14:03:16.702Z,11.90
2023-02-26T14:05:53.260Z,11.15
2023-02-26T14:08:44.026Z,14.55
2023-02-26T14:11:33.733Z,9.68
2023-02-26T14:14:17.994Z,10.98
2023-02-26T14:16:57.078Z,9.53
2023-02-26T14:19:37.824Z,8.13
2023-02-26T14:22:34.127Z,9.75
2023-02-26T14:25:35.316Z,8.95
2023-02-26T14:28:29.310Z,9.80
2023-02-26T14:31:20.526Z,8.93
2023-02-26T14:34:14.329Z,11.40
2023-02-26T14:36:50.252Z,8.95
2023-02-26T14:39:26.191Z,7.90
2023-02-26T14:42:04.927Z,8.13
2023-02-26T14:44:43.136Z,9.68
2023-02-26T14:47:12.820Z,10.05
2023-02-26T14:49:45.021Z,11.20
2023-02-26T14:52:21.090Z,10.53
2023-02-26T14:55:26.361Z,10.03
2023-02-26T14:58:42.727Z,8.55
2023-02-26T15:01:22.139Z,9.98
2023-02-26T15:04:42.588Z,9.38
2023-02-26T15:07:47.552Z,8.35
2023-02-26T15:10:37.551Z,7.37
2023-02-26T15:13:29.142Z,8.03
2023-02-26T15:16:05.494Z,9.35
2023-02-26T15:18:50.748Z,8.88
2023-02-26T15:21:24.316Z,16.00
2023-02-26T15:23:55.392Z,21.02
2023-02-26T15:26:33.372Z,17.87
2023-02-26T15:29:06.078Z,10.05
2023-02-26T15:31:43.984Z,9.93
2023-02-26T15:34:16.354Z,9.68
2023-02-26T15:36:53.439Z,9.70
2023-02-26T15:39:24.291Z,9.83
2023-02-26T15:41:54.259Z,18.45
2023-02-26T15:44:31.354Z,27.87
2023-02-26T15:47:02.777Z,109.92
2023-02-26T15:49:34.924Z,27.00
2023-02-26T15:52:05.228Z,13.58
2023-02-26T15:54:41.075Z,19.95
2023-02-26T15:57:10.528Z,12.88
2023-02-26T15:59:43.406Z,12.60
2023-02-26T16:02:15.394Z,12.90
2023-02-26T16:04:44.242Z,15.05
2023-02-26T16:07:13.362Z,16.07
2023-02-26T16:09:52.211Z,16.80
2023-02-26T16:12:27.861Z,13.98
2023-02-26T16:15:03.621Z,12.40
2023-02-26T16:17:35.153Z,11.88
2023-02-26T16:20:10.950Z,15.00
2023-02-26T16:22:52.514Z,14.73
2023-02-26T16:25:36.845Z,15.80
2023-02-26T16:28:15.936Z,12.93
2023-02-26T16:30:47.662Z,17.62
2023-02-26T16:33:17.468Z,12.07
2023-02-26T16:35:59.431Z,14.60
2023-02-26T16:38:35.202Z,12.13
2023-02-26T16:41:13.819Z,12.33
2023-02-26T16:43:50.023Z,14.10
2023-02-26T16:46:37.917Z,14.40
2023-02-26T16:49:13.518Z,12.85
2023-02-26T16:51:42.893Z,10.55
2023-02-26T16:54:37.022Z,13.10
2023-02-26T16:57:21.959Z,22.70
2023-02-26T16:59:59.660Z,29.32
2023-02-26T17:02:34.238Z,36.10
2023-02-26T17:05:09.425Z,20.72
2023-02-26T17:07:42.353Z,14.20
2023-02-26T17:10:21.317Z,13.10
2023-02-26T17:12:52.703Z,12.58
2023-02-26T17:15:28.514Z,21.27
2023-02-26T17:17:57.464Z,23.27
2023-02-26T17:20:27.120Z,27.13
2023-02-26T17:22:56.121Z,55.75
2023-02-26T17:25:25.896Z,29.50
2023-02-26T17:27:53.696Z,19.27
2023-02-26T17:30:28.245Z,14.30
2023-02-26T17:32:56.165Z,76.65
2023-02-26T17:35:23.869Z,86.40
2023-02-26T17:37:52.287Z,57.67
2023-02-26T17:40:35.174Z,54.40
2023-02-26T17:43:05.109Z,34.40
2023-02-26T17:45:34.154Z,27.75
2023-02-26T17:48:02.338Z,26.12
2023-02-26T17:50:54.923Z,66.00
2023-02-26T17:53:28.884Z,109.25
2023-02-26T17:55:56.971Z,31.45
2023-02-26T17:58:31.550Z,18.37
2023-02-26T18:01:00.119Z,73.22
2023-02-26T18:03:28.087Z,67.97
2023-02-26T18:05:57.455Z,22.42
2023-02-26T18:08:29.781Z,22.45
2023-02-26T18:10:59.311Z,21.55
2023-02-26T18:13:28.916Z,16.12
2023-02-26T18:15:57.766Z,17.20
2023-02-26T18:18:26.736Z,18.52
2023-02-26T18:20:56.051Z,23.77
2023-02-26T18:23:23.611Z,22.58
2023-02-26T18:25:53.938Z,20.35
2023-02-26T18:28:25.750Z,20.08
2023-02-26T18:30:57.280Z,22.37
2023-02-26T18:33:25.964Z,28.75
2023-02-26T18:35:56.290Z,30.30
2023-02-26T18:38:27.823Z,28.75
2023-02-26T18:40:56.268Z,20.97
2023-02-26T18:43:23.947Z,16.52
2023-02-26T18:45:54.116Z,35.73
2023-02-26T18:48:21.928Z,34.92
2023-02-26T18:50:49.535Z,25.02
2023-02-26T18:53:19.688Z,23.32
2023-02-26T18:55:55.779Z,23.27
2023-02-26T18:58:23.431Z,23.77
2023-02-26T19:00:51.613Z,20.75
2023-02-26T19:03:19.396Z,13.22
2023-02-26T19:06:00.740Z,16.73
2023-02-26T19:08:30.585Z,15.68
2023-02-26T19:10:58.922Z,15.55
2023-02-26T19:13:26.880Z,17.20
2023-02-26T19:15:56.523Z,20.08
2023-02-26T19:18:24.682Z,20.92
2023-02-26T19:20:53.922Z,14.03
2023-02-26T19:23:23.441Z,13.78
2023-02-26T19:25:52.035Z,18.82
2023-02-26T19:28:19.909Z,25.45
2023-02-26T19:30:47.617Z,25.55
2023-02-26T19:33:19.331Z,17.23
2023-02-26T19:35:47.014Z,18.30
2023-02-26T19:38:14.993Z,15.55
2023-02-26T19:40:43.228Z,13.83
2023-02-26T19:43:10.789Z,13.48
2023-02-26T19:45:38.375Z,52.65
2023-02-26T19:48:06.146Z,41.30
2023-02-26T19:50:34.382Z,34.20
2023-02-26T19:53:03.228Z,33.50
2023-02-26T19:55:30.831Z,34.27
2023-02-26T19:57:58.469Z,44.75
2023-02-26T20:00:26.257Z,59.08
2023-02-26T20:02:55.143Z,50.23
2023-02-26T20:05:22.603Z,26.82
2023-02-26T20:07:50.159Z,24.50
2023-02-26T20:10:18.650Z,18.85
2023-02-26T20:12:47.509Z,18.25
2023-02-26T20:15:15.091Z,21.33
2023-02-26T20:17:43.085Z,21.15
2023-02-26T20:20:11.652Z,21.77
2023-02-26T20:22:39.511Z,22.00
2023-02-26T20:25:08.544Z,20.02
2023-02-26T20:27:36.514Z,19.57
2023-02-26T20:30:06.406Z,17.85
2023-02-26T20:32:34.002Z,27.40
2023-02-26T20:35:01.513Z,25.15
2023-02-26T20:37:28.992Z,35.20
2023-02-26T20:39:56.665Z,35.15
2023-02-26T20:42:24.297Z,34.92
2023-02-26T20:44:51.984Z,26.07
2023-02-26T20:47:19.923Z,23.05
2023-02-26T20:49:47.423Z,19.20
2023-02-26T20:52:15.369Z,13.45
2023-02-26T20:54:44.260Z,10.60
2023-02-26T20:57:12.302Z,11.08
2023-02-26T20:59:39.999Z,11.10
2023-02-26T21:02:09.779Z,11.63
2023-02-26T21:04:38.208Z,10.13
2023-02-26T21:07:19.775Z,12.63
2023-02-26T21:09:54.905Z,21.87
2023-02-26T21:12:23.340Z,28.12
2023-02-26T21:14:52.102Z,22.42
2023-02-26T21:17:20.078Z,27.90
2023-02-26T21:19:47.937Z,26.48
2023-02-26T21:22:16.243Z,25.00
2023-02-26T21:24:44.398Z,25.62
2023-02-26T21:27:12.940Z,22.30
2023-02-26T21:29:40.639Z,20.82
2023-02-26T21:32:08.546Z,38.55
2023-02-26T21:34:38.199Z,25.02
2023-02-26T21:37:10.014Z,25.62
2023-02-26T21:39:39.146Z,25.77
2023-02-26T21:42:10.783Z,21.35
2023-02-26T21:44:38.435Z,18.23
2023-02-26T21:47:06.404Z,18.45
2023-02-26T21:49:34.294Z,18.05
2023-02-26T21:52:06.043Z,19.02
2023-02-26T21:54:34.067Z,17.57
2023-02-26T21:57:02.741Z,20.80
2023-02-26T21:59:30.264Z,22.48
2023-02-26T22:01:58.185Z,17.62
2023-02-26T22:04:26.090Z,17.73
2023-02-26T22:06:54.177Z,22.82
2023-02-26T22:09:22.398Z,32.48
2023-02-26T22:11:49.984Z,32.03
2023-02-26T22:14:17.703Z,30.60
2023-02-26T22:16:45.291Z,33.23
2023-02-26T22:19:13.002Z,31.52
2023-02-26T22:21:40.879Z,24.80
2023-02-26T22:24:08.623Z,18.95
2023-02-26T22:26:36.049Z,14.95
2023-02-26T22:29:03.893Z,12.90
2023-02-26T22:31:32.116Z,16.45
2023-02-26T22:34:00.350Z,16.37
2023-02-26T22:36:29.694Z,15.00
2023-02-26T22:38:57.168Z,16.12
2023-02-26T22:41:24.729Z,16.70
2023-02-26T22:43:54.103Z,15.10
2023-02-26T22:46:23.911Z,12.45
2023-02-26T22:48:51.310Z,14.33
2023-02-26T22:51:19.084Z,14.50
2023-02-26T22:53:46.611Z,11.95
2023-02-26T22:56:14.714Z,8.18
2023-02-26T22:58:42.180Z,6.37
2023-02-26T23:01:09.947Z,7.00
2023-02-26T23:03:37.840Z,7.53
2023-02-26T23:06:06.862Z,8.03
2023-02-26T23:08:34.839Z,9.58
2023-02-26T23:11:04.156Z,12.68
2023-02-26T23:13:35.068Z,11.83
2023-02-26T23:16:06.709Z,13.20
2023-02-26T23:18:35.936Z,15.55
2023-02-26T23:21:06.280Z,20.45
2023-02-26T23:23:34.270Z,15.93
2023-02-26T23:26:02.217Z,15.72
2023-02-26T23:28:30.086Z,13.45
2023-02-26T23:30:57.762Z,11.45
2023-02-26T23:33:25.739Z,11.97
2023-02-26T23:35:53.301Z,14.45
2023-02-26T23:38:20.877Z,13.90
2023-02-26T23:40:48.866Z,13.68
2023-02-26T23:43:17.082Z,15.10
2023-02-26T23:45:44.679Z,14.43
2023-02-26T23:48:12.204Z,16.70
2023-02-26T23:50:39.926Z,20.08
2023-02-26T23:53:08.267Z,11.40
2023-02-26T23:55:36.080Z,18.15
2023-02-26T23:58:03.689Z,14.53
